LAN1449 SPJC-SEGU
Flight info
| Callsign | LAN1449 |
|---|---|
| Flight time | 1h 42m |
| Altitude | 34000 |
| Route | ISREN UL780 EVRED EVRED2 |
| Aircraft | A319/M-SDE3FGHIRWY/LB1 |
Departure
| Time | 2026-04-27 22:01 |
|---|---|
| Airport | Jorge Chávez International Airport (SPJC) |
Arrival
| Time | 2026-04-27 23:43 |
|---|---|
| Airport | José Joaquín de Olmedo International Airport (SEGU) |
| Time | Latitude | Longitude | Altitude | Speed | Heading |
|---|---|---|---|---|---|
| 2026-04-27 21:24 | -12.02508 | -77.11598 | 84 ft | 0 kts | 64° |
| 2026-04-27 21:50 | -12.02509 | -77.11599 | 80 ft | 2 kts | 64° |
| 2026-04-27 21:50 | -12.02521 | -77.11622 | 84 ft | 4 kts | 56° |
| 2026-04-27 21:50 | -12.02538 | -77.11643 | 86 ft | 4 kts | 26° |
| 2026-04-27 21:51 | -12.02554 | -77.11646 | 82 ft | 0 kts | 334° |
| 2026-04-27 21:54 | -12.02548 | -77.11649 | 80 ft | 4 kts | 334° |
| 2026-04-27 21:54 | -12.02502 | -77.11671 | 81 ft | 10 kts | 334° |
| 2026-04-27 21:54 | -12.02435 | -77.11704 | 81 ft | 9 kts | 335° |
| 2026-04-27 21:54 | -12.02375 | -77.11702 | 80 ft | 9 kts | 53° |
| 2026-04-27 21:55 | -12.02351 | -77.11637 | 82 ft | 10 kts | 65° |
| 2026-04-27 21:55 | -12.02317 | -77.11570 | 82 ft | 11 kts | 56° |
| 2026-04-27 21:55 | -12.02247 | -77.11578 | 78 ft | 11 kts | 333° |
| 2026-04-27 21:55 | -12.02150 | -77.11626 | 67 ft | 19 kts | 334° |
| 2026-04-27 21:56 | -12.02012 | -77.11694 | 66 ft | 25 kts | 334° |
| 2026-04-27 21:56 | -12.01684 | -77.11857 | 66 ft | 28 kts | 332° |
| 2026-04-27 21:56 | -12.01510 | -77.11947 | 59 ft | 20 kts | 335° |
| 2026-04-27 21:57 | -12.01373 | -77.12015 | 59 ft | 23 kts | 334° |
| 2026-04-27 21:57 | -12.01271 | -77.12081 | 60 ft | 16 kts | 307° |
| 2026-04-27 21:57 | -12.01181 | -77.12175 | 53 ft | 20 kts | 334° |
| 2026-04-27 21:57 | -12.01048 | -77.12240 | 53 ft | 22 kts | 335° |
| 2026-04-27 21:58 | -12.00949 | -77.12288 | 52 ft | 11 kts | 334° |
| 2026-04-27 21:58 | -12.00916 | -77.12304 | 51 ft | 2 kts | 335° |
| 2026-04-27 21:58 | -12.00915 | -77.12304 | 51 ft | 0 kts | 335° |
| 2026-04-27 21:59 | -12.00893 | -77.12314 | 51 ft | 6 kts | 338° |
| 2026-04-27 21:59 | -12.00850 | -77.12291 | 50 ft | 10 kts | 58° |
| 2026-04-27 21:59 | -12.00811 | -77.12210 | 52 ft | 15 kts | 63° |
| 2026-04-27 21:59 | -12.00778 | -77.12139 | 50 ft | 6 kts | 86° |
| 2026-04-27 22:00 | -12.00809 | -77.12113 | 35 ft | 1 kts | 154° |
| 2026-04-27 22:00 | -12.00921 | -77.12057 | 33 ft | 49 kts | 154° |
| 2026-04-27 22:00 | -12.01434 | -77.11805 | 49 ft | 112 kts | 154° |
| 2026-04-27 22:00 | -12.02300 | -77.11380 | 169 ft | 152 kts | 154° |
| 2026-04-27 22:01 | -12.03231 | -77.10908 | 827 ft | 150 kts | 157° |
| 2026-04-27 22:01 | -12.04173 | -77.10445 | 1425 ft | 152 kts | 156° |
| 2026-04-27 22:01 | -12.05220 | -77.09941 | 1701 ft | 180 kts | 155° |
| 2026-04-27 22:01 | -12.06453 | -77.09344 | 1969 ft | 212 kts | 155° |
| 2026-04-27 22:02 | -12.07871 | -77.08659 | 2454 ft | 237 kts | 154° |
| 2026-04-27 22:02 | -12.09432 | -77.07903 | 3068 ft | 259 kts | 154° |
| 2026-04-27 22:02 | -12.11088 | -77.07092 | 3822 ft | 272 kts | 154° |
| 2026-04-27 22:02 | -12.12799 | -77.06244 | 4804 ft | 276 kts | 155° |
| 2026-04-27 22:03 | -12.14698 | -77.05934 | 5632 ft | 283 kts | 188° |
| 2026-04-27 22:03 | -12.16511 | -77.06696 | 6001 ft | 284 kts | 219° |
| 2026-04-27 22:03 | -12.17640 | -77.08308 | 6010 ft | 280 kts | 252° |
| 2026-04-27 22:03 | -12.17737 | -77.10258 | 6017 ft | 278 kts | 279° |
| 2026-04-27 22:04 | -12.17285 | -77.12189 | 6097 ft | 282 kts | 285° |
| 2026-04-27 22:04 | -12.16777 | -77.14139 | 6915 ft | 283 kts | 285° |
| 2026-04-27 22:04 | -12.16266 | -77.16090 | 7795 ft | 286 kts | 285° |
| 2026-04-27 22:04 | -12.15750 | -77.18071 | 8634 ft | 290 kts | 284° |
| 2026-04-27 22:05 | -12.15405 | -77.20092 | 9417 ft | 294 kts | 276° |
| 2026-04-27 22:05 | -12.15235 | -77.22218 | 10176 ft | 299 kts | 272° |
| 2026-04-27 22:05 | -12.14937 | -77.24396 | 10445 ft | 322 kts | 284° |
| 2026-04-27 22:05 | -12.14038 | -77.26559 | 10738 ft | 340 kts | 301° |
| 2026-04-27 22:06 | -12.12541 | -77.28424 | 11282 ft | 347 kts | 317° |
| 2026-04-27 22:06 | -12.10596 | -77.29907 | 11909 ft | 351 kts | 326° |
| 2026-04-27 22:06 | -12.08569 | -77.31300 | 12538 ft | 354 kts | 326° |
| 2026-04-27 22:06 | -12.06514 | -77.32728 | 13154 ft | 358 kts | 326° |
| 2026-04-27 22:07 | -12.04450 | -77.34172 | 13756 ft | 362 kts | 325° |
| 2026-04-27 22:07 | -12.02367 | -77.35632 | 14289 ft | 365 kts | 326° |
| 2026-04-27 22:07 | -12.00260 | -77.37109 | 14832 ft | 368 kts | 326° |
| 2026-04-27 22:07 | -11.98146 | -77.38591 | 15388 ft | 370 kts | 326° |
| 2026-04-27 22:08 | -11.96010 | -77.40087 | 15926 ft | 372 kts | 327° |
| 2026-04-27 22:08 | -11.93871 | -77.41582 | 16464 ft | 375 kts | 327° |
| 2026-04-27 22:08 | -11.91707 | -77.43092 | 17011 ft | 377 kts | 327° |
| 2026-04-27 22:08 | -11.89534 | -77.44610 | 17541 ft | 380 kts | 327° |
| 2026-04-27 22:09 | -11.87340 | -77.46143 | 18075 ft | 382 kts | 327° |
| 2026-04-27 22:09 | -11.85136 | -77.47683 | 18553 ft | 385 kts | 327° |
| 2026-04-27 22:09 | -11.82948 | -77.49210 | 18983 ft | 388 kts | 327° |
| 2026-04-27 22:09 | -11.80682 | -77.50790 | 19440 ft | 391 kts | 327° |
| 2026-04-27 22:10 | -11.78430 | -77.52363 | 19883 ft | 394 kts | 327° |
| 2026-04-27 22:10 | -11.76912 | -77.53404 | 20181 ft | 396 kts | 328° |
| 2026-04-27 22:10 | -11.73809 | -77.55390 | 20764 ft | 399 kts | 330° |
| 2026-04-27 22:10 | -11.71414 | -77.56839 | 21186 ft | 402 kts | 331° |
| 2026-04-27 22:11 | -11.68987 | -77.58282 | 21612 ft | 406 kts | 331° |
| 2026-04-27 22:11 | -11.66536 | -77.59741 | 22034 ft | 409 kts | 330° |
| 2026-04-27 22:11 | -11.64077 | -77.61217 | 22455 ft | 411 kts | 330° |
| 2026-04-27 22:11 | -11.61605 | -77.62716 | 22875 ft | 414 kts | 330° |
| 2026-04-27 22:12 | -11.59128 | -77.64230 | 23275 ft | 417 kts | 329° |
| 2026-04-27 22:12 | -11.56632 | -77.65764 | 23641 ft | 420 kts | 329° |
| 2026-04-27 22:12 | -11.54126 | -77.67310 | 23983 ft | 422 kts | 329° |
| 2026-04-27 22:12 | -11.51606 | -77.68868 | 24326 ft | 424 kts | 329° |
| 2026-04-27 22:13 | -11.49074 | -77.70430 | 24669 ft | 426 kts | 329° |
| 2026-04-27 22:13 | -11.46532 | -77.71992 | 25007 ft | 428 kts | 329° |
| 2026-04-27 22:13 | -11.43978 | -77.73555 | 25340 ft | 430 kts | 329° |
| 2026-04-27 22:13 | -11.41407 | -77.75125 | 25693 ft | 431 kts | 329° |
| 2026-04-27 22:14 | -11.38826 | -77.76698 | 26032 ft | 433 kts | 329° |
| 2026-04-27 22:14 | -11.36235 | -77.78279 | 26364 ft | 434 kts | 329° |
| 2026-04-27 22:14 | -11.33639 | -77.79864 | 26696 ft | 436 kts | 329° |
| 2026-04-27 22:14 | -11.31034 | -77.81458 | 27026 ft | 438 kts | 329° |
| 2026-04-27 22:15 | -11.28416 | -77.83060 | 27362 ft | 439 kts | 329° |
| 2026-04-27 22:15 | -11.25789 | -77.84670 | 27697 ft | 441 kts | 329° |
| 2026-04-27 22:15 | -11.23155 | -77.86282 | 28020 ft | 443 kts | 329° |
| 2026-04-27 22:15 | -11.20504 | -77.87901 | 28342 ft | 444 kts | 329° |
| 2026-04-27 22:16 | -11.17888 | -77.89500 | 28652 ft | 446 kts | 329° |
| 2026-04-27 22:16 | -11.15220 | -77.91134 | 28963 ft | 448 kts | 329° |
| 2026-04-27 22:16 | -11.12551 | -77.92769 | 29277 ft | 449 kts | 329° |
| 2026-04-27 22:16 | -11.09861 | -77.94416 | 29597 ft | 451 kts | 329° |
| 2026-04-27 22:17 | -11.07164 | -77.96061 | 29901 ft | 452 kts | 329° |
| 2026-04-27 22:17 | -11.04439 | -77.97677 | 30182 ft | 454 kts | 331° |
| 2026-04-27 22:17 | -11.01653 | -77.99207 | 30447 ft | 455 kts | 333° |
| 2026-04-27 22:17 | -10.98836 | -78.00667 | 30708 ft | 456 kts | 333° |
| 2026-04-27 22:18 | -10.95988 | -78.02102 | 30973 ft | 457 kts | 334° |
| 2026-04-27 22:18 | -10.93130 | -78.03541 | 31239 ft | 458 kts | 333° |
| 2026-04-27 22:18 | -10.90285 | -78.04993 | 31502 ft | 459 kts | 333° |
| 2026-04-27 22:18 | -10.87435 | -78.06472 | 31755 ft | 460 kts | 332° |
| 2026-04-27 22:19 | -10.84589 | -78.07968 | 32089 ft | 459 kts | 332° |
| 2026-04-27 22:19 | -10.81767 | -78.09457 | 32478 ft | 457 kts | 332° |
| 2026-04-27 22:19 | -10.78947 | -78.10948 | 32868 ft | 455 kts | 332° |
| 2026-04-27 22:19 | -10.76137 | -78.12431 | 33267 ft | 454 kts | 332° |
| 2026-04-27 22:20 | -10.73341 | -78.13901 | 33660 ft | 452 kts | 332° |
| 2026-04-27 22:20 | -10.70543 | -78.15367 | 33939 ft | 452 kts | 332° |
| 2026-04-27 22:20 | -10.67763 | -78.16819 | 33993 ft | 444 kts | 332° |
| 2026-04-27 22:21 | -10.62361 | -78.19640 | 33997 ft | 433 kts | 332° |
| 2026-04-27 22:21 | -10.57050 | -78.22424 | 34003 ft | 431 kts | 332° |
| 2026-04-27 22:22 | -10.51708 | -78.25216 | 34003 ft | 431 kts | 332° |
| 2026-04-27 22:22 | -10.46374 | -78.27999 | 34010 ft | 431 kts | 332° |
| 2026-04-27 22:23 | -10.41051 | -78.30795 | 34006 ft | 430 kts | 332° |
| 2026-04-27 22:23 | -10.35728 | -78.33579 | 34008 ft | 430 kts | 332° |
| 2026-04-27 22:24 | -10.30405 | -78.36356 | 34013 ft | 430 kts | 332° |
| 2026-04-27 22:24 | -10.25070 | -78.39137 | 34013 ft | 430 kts | 332° |
| 2026-04-27 22:25 | -10.19750 | -78.41910 | 34010 ft | 430 kts | 332° |
| 2026-04-27 22:25 | -10.14417 | -78.44693 | 34011 ft | 430 kts | 332° |
| 2026-04-27 22:26 | -10.09129 | -78.47450 | 34011 ft | 430 kts | 332° |
| 2026-04-27 22:26 | -10.03810 | -78.50220 | 34015 ft | 430 kts | 332° |
| 2026-04-27 22:27 | -9.98498 | -78.52996 | 34011 ft | 429 kts | 332° |
| 2026-04-27 22:27 | -9.93180 | -78.55778 | 34011 ft | 429 kts | 332° |
| 2026-04-27 22:28 | -9.87875 | -78.58540 | 34006 ft | 429 kts | 332° |
| 2026-04-27 22:28 | -9.82569 | -78.61292 | 33998 ft | 429 kts | 332° |
| 2026-04-27 22:29 | -9.77267 | -78.64047 | 33988 ft | 428 kts | 332° |
| 2026-04-27 22:29 | -9.71969 | -78.66812 | 33979 ft | 428 kts | 333° |
| 2026-04-27 22:30 | -9.66334 | -78.68756 | 33964 ft | 429 kts | 345° |
| 2026-04-27 22:30 | -9.60589 | -78.70299 | 33953 ft | 429 kts | 344° |
| 2026-04-27 22:31 | -9.54821 | -78.71861 | 33939 ft | 429 kts | 344° |
| 2026-04-27 22:31 | -9.49051 | -78.73431 | 33936 ft | 430 kts | 344° |
| 2026-04-27 22:32 | -9.43261 | -78.74994 | 33928 ft | 430 kts | 344° |
| 2026-04-27 22:32 | -9.37478 | -78.76559 | 33922 ft | 430 kts | 344° |
| 2026-04-27 22:33 | -9.31693 | -78.78123 | 33921 ft | 431 kts | 345° |
| 2026-04-27 22:33 | -9.25897 | -78.79687 | 33918 ft | 431 kts | 345° |
| 2026-04-27 22:34 | -9.21066 | -78.80991 | 33922 ft | 431 kts | 345° |
| 2026-04-27 22:34 | -9.14307 | -78.82821 | 33928 ft | 431 kts | 345° |
| 2026-04-27 22:35 | -9.08548 | -78.84378 | 33938 ft | 431 kts | 345° |
| 2026-04-27 22:35 | -9.03698 | -78.85689 | 33936 ft | 431 kts | 345° |
| 2026-04-27 22:36 | -8.97942 | -78.87245 | 33937 ft | 430 kts | 345° |
| 2026-04-27 22:36 | -8.92106 | -78.88817 | 33942 ft | 430 kts | 345° |
| 2026-04-27 22:37 | -8.86358 | -78.90366 | 33938 ft | 430 kts | 345° |
| 2026-04-27 22:37 | -8.80574 | -78.91928 | 33940 ft | 430 kts | 345° |
| 2026-04-27 22:38 | -8.74776 | -78.93486 | 33942 ft | 430 kts | 345° |
| 2026-04-27 22:38 | -8.68994 | -78.95043 | 33942 ft | 430 kts | 345° |
| 2026-04-27 22:39 | -8.63211 | -78.96605 | 33942 ft | 430 kts | 345° |
| 2026-04-27 22:39 | -8.57412 | -78.98163 | 33939 ft | 431 kts | 345° |
| 2026-04-27 22:40 | -8.51622 | -78.99722 | 33938 ft | 431 kts | 345° |
| 2026-04-27 22:40 | -8.45856 | -79.01272 | 33936 ft | 431 kts | 345° |
| 2026-04-27 22:41 | -8.40066 | -79.02828 | 33936 ft | 431 kts | 345° |
| 2026-04-27 22:41 | -8.34265 | -79.04379 | 33936 ft | 431 kts | 345° |
| 2026-04-27 22:42 | -8.28457 | -79.05943 | 33934 ft | 431 kts | 345° |
| 2026-04-27 22:42 | -8.22658 | -79.07507 | 33932 ft | 431 kts | 345° |
| 2026-04-27 22:43 | -8.16855 | -79.09075 | 33934 ft | 431 kts | 345° |
| 2026-04-27 22:43 | -8.11042 | -79.10640 | 33930 ft | 431 kts | 345° |
| 2026-04-27 22:44 | -8.05138 | -79.11703 | 33935 ft | 431 kts | 352° |
| 2026-04-27 22:44 | -7.99185 | -79.12449 | 33933 ft | 431 kts | 352° |
| 2026-04-27 22:45 | -7.93226 | -79.13209 | 33936 ft | 432 kts | 352° |
| 2026-04-27 22:45 | -7.87302 | -79.13965 | 33944 ft | 432 kts | 352° |
| 2026-04-27 22:46 | -7.81334 | -79.14721 | 33949 ft | 432 kts | 352° |
| 2026-04-27 22:46 | -7.75369 | -79.15469 | 33959 ft | 432 kts | 352° |
| 2026-04-27 22:47 | -7.69405 | -79.16216 | 33970 ft | 432 kts | 352° |
| 2026-04-27 22:47 | -7.63438 | -79.16967 | 33969 ft | 432 kts | 352° |
| 2026-04-27 22:48 | -7.57465 | -79.17721 | 33973 ft | 432 kts | 352° |
| 2026-04-27 22:48 | -7.51505 | -79.18473 | 33981 ft | 432 kts | 352° |
| 2026-04-27 22:49 | -7.45532 | -79.19232 | 33971 ft | 432 kts | 352° |
| 2026-04-27 22:49 | -7.39574 | -79.19987 | 33985 ft | 431 kts | 353° |
| 2026-04-27 22:50 | -7.33617 | -79.20735 | 33997 ft | 431 kts | 353° |
| 2026-04-27 22:50 | -7.27653 | -79.21483 | 34000 ft | 431 kts | 353° |
| 2026-04-27 22:51 | -7.21702 | -79.22232 | 34006 ft | 431 kts | 353° |
| 2026-04-27 22:51 | -7.15763 | -79.22982 | 34015 ft | 431 kts | 353° |
| 2026-04-27 22:52 | -7.09804 | -79.23731 | 34018 ft | 431 kts | 353° |
| 2026-04-27 22:52 | -7.03855 | -79.24478 | 34015 ft | 431 kts | 353° |
| 2026-04-27 22:53 | -6.97911 | -79.25227 | 34020 ft | 431 kts | 353° |
| 2026-04-27 22:53 | -6.91957 | -79.25980 | 34023 ft | 431 kts | 353° |
| 2026-04-27 22:54 | -6.86013 | -79.26731 | 34028 ft | 431 kts | 353° |
| 2026-04-27 22:54 | -6.80095 | -79.27483 | 34029 ft | 431 kts | 353° |
| 2026-04-27 22:55 | -6.74146 | -79.28232 | 34030 ft | 431 kts | 353° |
| 2026-04-27 22:55 | -6.68194 | -79.28975 | 34034 ft | 431 kts | 353° |
| 2026-04-27 22:56 | -6.62228 | -79.29722 | 34033 ft | 431 kts | 353° |
| 2026-04-27 22:56 | -6.56265 | -79.30471 | 34034 ft | 431 kts | 353° |
| 2026-04-27 22:57 | -6.50312 | -79.31224 | 34034 ft | 431 kts | 353° |
| 2026-04-27 22:57 | -6.44358 | -79.31977 | 34034 ft | 431 kts | 353° |
| 2026-04-27 22:58 | -6.38398 | -79.32718 | 34026 ft | 431 kts | 353° |
| 2026-04-27 22:58 | -6.32446 | -79.33459 | 34029 ft | 431 kts | 353° |
| 2026-04-27 22:59 | -6.26504 | -79.34207 | 34023 ft | 431 kts | 353° |
| 2026-04-27 22:59 | -6.20553 | -79.34950 | 34022 ft | 430 kts | 353° |
| 2026-04-27 23:00 | -6.11667 | -79.36071 | 34019 ft | 430 kts | 353° |
| 2026-04-27 23:00 | -6.05693 | -79.36823 | 34019 ft | 430 kts | 353° |
| 2026-04-27 23:01 | -5.99756 | -79.37567 | 34016 ft | 430 kts | 353° |
| 2026-04-27 23:01 | -5.93816 | -79.38311 | 34017 ft | 430 kts | 353° |
| 2026-04-27 23:02 | -5.87920 | -79.39041 | 34025 ft | 430 kts | 353° |
| 2026-04-27 23:02 | -5.81973 | -79.39786 | 34019 ft | 430 kts | 352° |
| 2026-04-27 23:03 | -5.76040 | -79.40527 | 34023 ft | 430 kts | 353° |
| 2026-04-27 23:03 | -5.70101 | -79.41270 | 34024 ft | 430 kts | 353° |
| 2026-04-27 23:04 | -5.64171 | -79.42016 | 34025 ft | 430 kts | 352° |
| 2026-04-27 23:04 | -5.58271 | -79.42756 | 34024 ft | 430 kts | 352° |
| 2026-04-27 23:05 | -5.52343 | -79.43499 | 34022 ft | 430 kts | 352° |
| 2026-04-27 23:05 | -5.46412 | -79.44237 | 34028 ft | 429 kts | 353° |
| 2026-04-27 23:06 | -5.40475 | -79.44976 | 34026 ft | 429 kts | 353° |
| 2026-04-27 23:06 | -5.34544 | -79.45720 | 34028 ft | 430 kts | 352° |
| 2026-04-27 23:07 | -5.28605 | -79.46465 | 34030 ft | 430 kts | 352° |
| 2026-04-27 23:07 | -5.22667 | -79.47208 | 34033 ft | 430 kts | 352° |
| 2026-04-27 23:08 | -5.16714 | -79.47958 | 34035 ft | 431 kts | 352° |
| 2026-04-27 23:08 | -5.10763 | -79.48698 | 34035 ft | 431 kts | 352° |
| 2026-04-27 23:09 | -5.04817 | -79.49439 | 34049 ft | 431 kts | 352° |
| 2026-04-27 23:09 | -4.98857 | -79.50186 | 34056 ft | 431 kts | 352° |
| 2026-04-27 23:10 | -4.92899 | -79.50930 | 34049 ft | 431 kts | 352° |
| 2026-04-27 23:10 | -4.86950 | -79.51672 | 34049 ft | 431 kts | 352° |
| 2026-04-27 23:11 | -4.80987 | -79.52416 | 34053 ft | 431 kts | 352° |
| 2026-04-27 23:11 | -4.75026 | -79.53157 | 34040 ft | 432 kts | 352° |
| 2026-04-27 23:12 | -4.69061 | -79.53907 | 34038 ft | 432 kts | 352° |
| 2026-04-27 23:12 | -4.63141 | -79.54652 | 34029 ft | 432 kts | 352° |
| 2026-04-27 23:13 | -4.57170 | -79.55400 | 34029 ft | 432 kts | 352° |
| 2026-04-27 23:13 | -4.51206 | -79.56141 | 34028 ft | 432 kts | 352° |
| 2026-04-27 23:14 | -4.45240 | -79.56890 | 34024 ft | 432 kts | 352° |
| 2026-04-27 23:14 | -4.39271 | -79.57660 | 34021 ft | 432 kts | 352° |
| 2026-04-27 23:15 | -4.33298 | -79.58434 | 34012 ft | 432 kts | 352° |
| 2026-04-27 23:15 | -4.30315 | -79.58818 | 33906 ft | 434 kts | 352° |
| 2026-04-27 23:15 | -4.27294 | -79.59207 | 34010 ft | 441 kts | 352° |
| 2026-04-27 23:16 | -4.21127 | -79.59998 | 34042 ft | 450 kts | 352° |
| 2026-04-27 23:16 | -4.14904 | -79.60792 | 34054 ft | 451 kts | 352° |
| 2026-04-27 23:17 | -4.08671 | -79.61589 | 34059 ft | 451 kts | 352° |
| 2026-04-27 23:17 | -4.02456 | -79.62394 | 34064 ft | 452 kts | 352° |
| 2026-04-27 23:18 | -3.96215 | -79.63198 | 34061 ft | 452 kts | 352° |
| 2026-04-27 23:18 | -3.89981 | -79.63995 | 34045 ft | 452 kts | 352° |
| 2026-04-27 23:19 | -3.83758 | -79.64792 | 34027 ft | 453 kts | 352° |
| 2026-04-27 23:19 | -3.77502 | -79.65592 | 34002 ft | 453 kts | 352° |
| 2026-04-27 23:20 | -3.71245 | -79.66394 | 34011 ft | 453 kts | 352° |
| 2026-04-27 23:20 | -3.64985 | -79.67194 | 34009 ft | 453 kts | 352° |
| 2026-04-27 23:21 | -3.61857 | -79.67595 | 33816 ft | 450 kts | 352° |
| 2026-04-27 23:21 | -3.59803 | -79.67858 | 33485 ft | 448 kts | 352° |
| 2026-04-27 23:21 | -3.56722 | -79.68257 | 32968 ft | 445 kts | 352° |
| 2026-04-27 23:21 | -3.52632 | -79.68786 | 32285 ft | 441 kts | 352° |
| 2026-04-27 23:22 | -3.51492 | -79.68933 | 32090 ft | 440 kts | 352° |
| 2026-04-27 23:22 | -3.48466 | -79.69319 | 31573 ft | 437 kts | 352° |
| 2026-04-27 23:23 | -3.45455 | -79.69704 | 31063 ft | 435 kts | 352° |
| 2026-04-27 23:23 | -3.42458 | -79.70089 | 30569 ft | 432 kts | 352° |
| 2026-04-27 23:23 | -3.39490 | -79.70468 | 30069 ft | 430 kts | 352° |
| 2026-04-27 23:23 | -3.36530 | -79.70843 | 29514 ft | 427 kts | 352° |
| 2026-04-27 23:24 | -3.33586 | -79.71217 | 28979 ft | 424 kts | 352° |
| 2026-04-27 23:24 | -3.30668 | -79.71586 | 28475 ft | 421 kts | 352° |
| 2026-04-27 23:24 | -3.27782 | -79.71954 | 27980 ft | 417 kts | 352° |
| 2026-04-27 23:24 | -3.24943 | -79.72321 | 27495 ft | 415 kts | 353° |
| 2026-04-27 23:25 | -3.22095 | -79.72691 | 27036 ft | 412 kts | 353° |
| 2026-04-27 23:25 | -3.19226 | -79.73061 | 26564 ft | 409 kts | 353° |
| 2026-04-27 23:25 | -3.16404 | -79.73424 | 26120 ft | 406 kts | 353° |
| 2026-04-27 23:25 | -3.13646 | -79.73776 | 25695 ft | 404 kts | 354° |
| 2026-04-27 23:26 | -3.10867 | -79.74132 | 25278 ft | 402 kts | 354° |
| 2026-04-27 23:26 | -3.08101 | -79.74486 | 24861 ft | 399 kts | 354° |
| 2026-04-27 23:26 | -3.05363 | -79.74837 | 24441 ft | 396 kts | 354° |
| 2026-04-27 23:26 | -3.02637 | -79.75185 | 24019 ft | 394 kts | 354° |
| 2026-04-27 23:27 | -2.99926 | -79.75531 | 23590 ft | 392 kts | 355° |
| 2026-04-27 23:27 | -2.97230 | -79.75876 | 23087 ft | 389 kts | 355° |
| 2026-04-27 23:27 | -2.94551 | -79.76217 | 22585 ft | 386 kts | 355° |
| 2026-04-27 23:27 | -2.91901 | -79.76555 | 22083 ft | 383 kts | 355° |
| 2026-04-27 23:28 | -2.89268 | -79.76893 | 21583 ft | 380 kts | 354° |
| 2026-04-27 23:28 | -2.86649 | -79.77231 | 21098 ft | 377 kts | 354° |
| 2026-04-27 23:28 | -2.84066 | -79.77562 | 20610 ft | 374 kts | 354° |
| 2026-04-27 23:28 | -2.81488 | -79.77892 | 20135 ft | 371 kts | 354° |
| 2026-04-27 23:29 | -2.78932 | -79.78211 | 19665 ft | 368 kts | 355° |
| 2026-04-27 23:29 | -2.76400 | -79.78453 | 19207 ft | 365 kts | 357° |
| 2026-04-27 23:29 | -2.73870 | -79.78639 | 18749 ft | 362 kts | 358° |
| 2026-04-27 23:29 | -2.71362 | -79.78799 | 18300 ft | 360 kts | 358° |
| 2026-04-27 23:30 | -2.68872 | -79.78958 | 17793 ft | 357 kts | 358° |
| 2026-04-27 23:30 | -2.66433 | -79.79120 | 17294 ft | 354 kts | 358° |
| 2026-04-27 23:30 | -2.63981 | -79.79291 | 16799 ft | 352 kts | 357° |
| 2026-04-27 23:30 | -2.61550 | -79.79467 | 16324 ft | 349 kts | 357° |
| 2026-04-27 23:31 | -2.59131 | -79.79650 | 15849 ft | 346 kts | 357° |
| 2026-04-27 23:31 | -2.56742 | -79.79833 | 15389 ft | 344 kts | 357° |
| 2026-04-27 23:31 | -2.54361 | -79.80014 | 14930 ft | 341 kts | 357° |
| 2026-04-27 23:31 | -2.52002 | -79.80191 | 14488 ft | 339 kts | 357° |
| 2026-04-27 23:32 | -2.49654 | -79.80367 | 13978 ft | 334 kts | 356° |
| 2026-04-27 23:32 | -2.47350 | -79.80538 | 13228 ft | 331 kts | 356° |
| 2026-04-27 23:32 | -2.45069 | -79.80707 | 12479 ft | 328 kts | 356° |
| 2026-04-27 23:32 | -2.42808 | -79.80875 | 11752 ft | 325 kts | 356° |
| 2026-04-27 23:33 | -2.40567 | -79.81041 | 11076 ft | 324 kts | 356° |
| 2026-04-27 23:33 | -2.38324 | -79.81207 | 10655 ft | 321 kts | 356° |
| 2026-04-27 23:33 | -2.36107 | -79.81370 | 10230 ft | 319 kts | 356° |
| 2026-04-27 23:33 | -2.33899 | -79.81531 | 9824 ft | 317 kts | 356° |
| 2026-04-27 23:34 | -2.31736 | -79.81691 | 9691 ft | 305 kts | 356° |
| 2026-04-27 23:34 | -2.29655 | -79.81849 | 9445 ft | 298 kts | 355° |
| 2026-04-27 23:34 | -2.27599 | -79.82006 | 9095 ft | 295 kts | 355° |
| 2026-04-27 23:34 | -2.25554 | -79.82160 | 8728 ft | 294 kts | 355° |
| 2026-04-27 23:35 | -2.23520 | -79.82239 | 8364 ft | 292 kts | 4° |
| 2026-04-27 23:35 | -2.21558 | -79.81847 | 8187 ft | 282 kts | 19° |
| 2026-04-27 23:35 | -2.19843 | -79.81038 | 8053 ft | 264 kts | 31° |
| 2026-04-27 23:35 | -2.18281 | -79.80139 | 7752 ft | 256 kts | 30° |
| 2026-04-27 23:36 | -2.16745 | -79.79263 | 7339 ft | 252 kts | 30° |
| 2026-04-27 23:36 | -2.15228 | -79.78399 | 6883 ft | 250 kts | 30° |
| 2026-04-27 23:36 | -2.13728 | -79.77543 | 6508 ft | 243 kts | 30° |
| 2026-04-27 23:36 | -2.12286 | -79.76718 | 6098 ft | 238 kts | 30° |
| 2026-04-27 23:37 | -2.10865 | -79.75912 | 5736 ft | 237 kts | 29° |
| 2026-04-27 23:37 | -2.09436 | -79.75101 | 5401 ft | 235 kts | 29° |
| 2026-04-27 23:37 | -2.08028 | -79.74302 | 5146 ft | 229 kts | 27° |
| 2026-04-27 23:37 | -2.06554 | -79.73910 | 5014 ft | 215 kts | 359° |
| 2026-04-27 23:38 | -2.05138 | -79.74269 | 4773 ft | 209 kts | 330° |
| 2026-04-27 23:38 | -2.04088 | -79.75228 | 4486 ft | 203 kts | 303° |
| 2026-04-27 23:38 | -2.03593 | -79.76522 | 3999 ft | 199 kts | 280° |
| 2026-04-27 23:38 | -2.03318 | -79.77852 | 3573 ft | 193 kts | 281° |
| 2026-04-27 23:39 | -2.03156 | -79.79171 | 3095 ft | 190 kts | 266° |
| 2026-04-27 23:39 | -2.03447 | -79.80442 | 2641 ft | 186 kts | 245° |
| 2026-04-27 23:39 | -2.04127 | -79.81472 | 2402 ft | 171 kts | 226° |
| 2026-04-27 23:39 | -2.05031 | -79.82194 | 2171 ft | 160 kts | 210° |
| 2026-04-27 23:40 | -2.05947 | -79.82717 | 1969 ft | 144 kts | 210° |
| 2026-04-27 23:40 | -2.06779 | -79.83198 | 1803 ft | 132 kts | 210° |
| 2026-04-27 23:40 | -2.07560 | -79.83652 | 1595 ft | 129 kts | 210° |
| 2026-04-27 23:40 | -2.08325 | -79.84097 | 1391 ft | 126 kts | 208° |
| 2026-04-27 23:41 | -2.09090 | -79.84538 | 1202 ft | 126 kts | 209° |
| 2026-04-27 23:41 | -2.09852 | -79.84959 | 1083 ft | 126 kts | 209° |
| 2026-04-27 23:41 | -2.10613 | -79.85406 | 929 ft | 127 kts | 207° |
| 2026-04-27 23:41 | -2.11378 | -79.85854 | 806 ft | 129 kts | 207° |
| 2026-04-27 23:42 | -2.12154 | -79.86298 | 661 ft | 130 kts | 207° |
| 2026-04-27 23:42 | -2.12936 | -79.86747 | 501 ft | 129 kts | 207° |
| 2026-04-27 23:42 | -2.13724 | -79.87197 | 367 ft | 130 kts | 205° |
| 2026-04-27 23:42 | -2.14512 | -79.87651 | 151 ft | 131 kts | 208° |
| 2026-04-27 23:43 | -2.15268 | -79.88099 | 31 ft | 118 kts | 207° |
| 2026-04-27 23:43 | -2.15793 | -79.88390 | 26 ft | 46 kts | 210° |
| 2026-04-27 23:43 | -2.15990 | -79.88509 | 27 ft | 21 kts | 211° |
| 2026-04-27 23:43 | -2.16015 | -79.88575 | 28 ft | 7 kts | 294° |
| 2026-04-27 23:44 | -2.15994 | -79.88603 | 28 ft | 7 kts | 321° |
| 2026-04-27 23:44 | -2.15935 | -79.88587 | 29 ft | 12 kts | 38° |
| 2026-04-27 23:44 | -2.15872 | -79.88550 | 29 ft | 12 kts | 28° |
| 2026-04-27 23:44 | -2.15781 | -79.88499 | 28 ft | 16 kts | 30° |
| 2026-04-27 23:45 | -2.15708 | -79.88456 | 28 ft | 14 kts | 30° |
| 2026-04-27 23:45 | -2.15615 | -79.88401 | 28 ft | 17 kts | 30° |
| 2026-04-27 23:45 | -2.15504 | -79.88338 | 28 ft | 20 kts | 30° |
| 2026-04-27 23:45 | -2.15384 | -79.88268 | 28 ft | 15 kts | 30° |
| 2026-04-27 23:46 | -2.15301 | -79.88220 | 28 ft | 11 kts | 29° |
| 2026-04-27 23:46 | -2.15248 | -79.88245 | 28 ft | 10 kts | 302° |
| 2026-04-27 23:46 | -2.15214 | -79.88310 | 29 ft | 10 kts | 300° |
| 2026-04-27 23:46 | -2.15174 | -79.88380 | 29 ft | 13 kts | 300° |
| 2026-04-27 23:47 | -2.15126 | -79.88392 | 29 ft | 9 kts | 27° |
| 2026-04-27 23:47 | -2.15067 | -79.88359 | 29 ft | 10 kts | 29° |
| 2026-04-27 23:47 | -2.15004 | -79.88324 | 29 ft | 11 kts | 29° |
| 2026-04-27 23:47 | -2.14956 | -79.88297 | 29 ft | 6 kts | 30° |
| 2026-04-27 23:48 | -2.14942 | -79.88296 | 29 ft | 1 kts | 347° |
| 2026-04-27 23:48 | -2.14936 | -79.88304 | 29 ft | 2 kts | 300° |
| 2026-04-27 23:48 | -2.14928 | -79.88319 | 29 ft | 2 kts | 299° |
| 2026-04-27 23:48 | -2.14917 | -79.88337 | 29 ft | 3 kts | 302° |
| 2026-04-27 23:49 | -2.14911 | -79.88346 | 29 ft | 2 kts | 300° |
| 2026-04-27 23:49 | -2.14911 | -79.88347 | 29 ft | 0 kts | 301° |